Time;durP1;ratioP1;P1;durP2;ratioP2;P2;SDS_P1;SDS_P2;PMS_P1;PMS_P2;Temp;Humidity;BMP_temperature;BMP_pressure;BME280_temperature;BME280_humidity;BME280_pressure;Samples;Min_cycle;Max_cycle;Signal;HPM_P1;HPM_P2
2022/12/10 00:00:00;;;;;;;0.60;0.60;;;;;;;-0.45;99.43;95632.16;29373;224;63005;-57
2022/12/10 00:00:31;;;;;;;0.60;0.60;;;;;;;-0.46;99.54;95630.56;29373;294;63009;-57
2022/12/10 00:01:11;;;;;;;0.60;0.60;;;;;;;-0.47;99.84;95632.41;29373;214;63007;-57
2022/12/10 00:01:44;;;;;;;0.70;0.70;;;;;;;-0.45;99.56;95629.50;29393;229;64013;-57
2022/12/10 00:02:17;;;;;;;0.60;0.60;;;;;;;-0.44;99.79;95633.78;29395;233;63004;-57
2022/12/10 00:02:48;;;;;;;0.62;0.62;;;;;;;-0.45;99.57;95626.84;29373;218;63009;-58
2022/12/10 00:03:20;;;;;;;1.87;1.87;;;;;;;-0.44;99.50;95629.25;29373;217;63004;-57
2022/12/10 00:03:52;;;;;;;0.70;0.70;;;;;;;-0.44;99.59;95634.56;29373;215;63009;-57
2022/12/10 00:04:23;;;;;;;0.60;0.60;;;;;;;-0.43;99.85;95636.19;29373;211;63005;-57
2022/12/10 00:04:54;;;;;;;0.60;0.60;;;;;;;-0.43;99.71;95624.72;29373;208;63009;-57
2022/12/10 00:05:26;;;;;;;0.70;0.70;;;;;;;-0.43;99.54;95640.72;29373;215;63005;-57
2022/12/10 00:06:01;;;;;;;1.62;1.60;;;;;;;-0.43;99.46;95636.19;29373;241;63009;-58
2022/12/10 00:06:35;;;;;;;0.70;0.70;;;;;;;-0.44;99.83;95628.44;29373;329;63008;-57
2022/12/10 00:07:06;;;;;;;0.70;0.70;;;;;;;-0.43;99.81;95632.72;29371;252;64013;-57
2022/12/10 00:07:38;;;;;;;0.70;0.70;;;;;;;-0.42;99.72;95634.31;29373;304;63004;-57
2022/12/10 00:08:09;;;;;;;0.60;0.60;;;;;;;-0.41;99.74;95635.94;29373;349;63009;-57
2022/12/10 00:08:41;;;;;;;0.70;0.70;;;;;;;-0.41;99.59;95633.28;29373;270;63004;-57
2022/12/10 00:09:15;;;;;;;0.70;0.70;;;;;;;-0.41;99.81;95633.28;29373;297;63009;-58
2022/12/10 00:09:46;;;;;;;0.60;0.60;;;;;;;-0.40;99.90;95634.88;29373;223;63004;-57
2022/12/10 00:10:18;;;;;;;1.77;1.77;;;;;;;-0.41;99.83;95627.94;29373;203;63008;-57
2022/12/10 00:10:49;;;;;;;0.60;0.60;;;;;;;-0.40;100.00;95637.53;29373;203;63004;-58
2022/12/10 00:11:22;;;;;;;1.25;1.23;;;;;;;-0.40;100.00;95632.22;29373;197;63009;-57
2022/12/10 00:11:53;;;;;;;0.70;0.70;;;;;;;-0.40;100.00;95630.34;29373;203;63005;-57
2022/12/10 00:12:24;;;;;;;0.80;0.80;;;;;;;-0.40;100.00;95635.69;29371;254;64013;-57
2022/12/10 00:12:55;;;;;;;0.70;0.70;;;;;;;-0.39;100.00;95636.47;29373;226;63005;-56
2022/12/10 00:13:27;;;;;;;0.60;0.60;;;;;;;-0.38;100.00;95632.75;29373;260;63009;-57
2022/12/10 00:13:59;;;;;;;0.70;0.70;;;;;;;-0.39;100.00;95631.97;29373;327;63005;-57
2022/12/10 00:14:30;;;;;;;0.70;0.70;;;;;;;-0.39;100.00;95628.50;29373;219;63009;-57
2022/12/10 00:15:01;;;;;;;0.60;0.60;;;;;;;-0.39;100.00;95631.16;29373;229;63004;-57
2022/12/10 00:15:35;;;;;;;0.65;0.65;;;;;;;-0.39;100.00;95637.28;29373;197;63009;-68
2022/12/10 00:16:09;;;;;;;0.70;0.70;;;;;;;-0.39;100.00;95631.16;29373;280;63004;-57
2022/12/10 00:16:42;;;;;;;0.65;0.65;;;;;;;-0.40;100.00;95633.03;29373;330;63009;-57
2022/12/10 00:17:13;;;;;;;0.70;0.70;;;;;;;-0.41;100.00;95633.28;29373;330;63004;-58
2022/12/10 00:17:45;;;;;;;0.60;0.60;;;;;;;-0.41;100.00;95634.06;29371;209;64013;-57
2022/12/10 00:18:16;;;;;;;0.70;0.70;;;;;;;-0.39;100.00;95641.81;29373;322;63005;-58
2022/12/10 00:18:49;;;;;;;0.70;0.70;;;;;;;-0.39;100.00;95639.97;29373;199;63009;-57
2022/12/10 00:19:20;;;;;;;0.70;0.70;;;;;;;-0.40;100.00;95638.34;29373;209;63005;-57
2022/12/10 00:19:51;;;;;;;0.60;0.60;;;;;;;-0.39;100.00;95639.97;29372;287;64009;-57
2022/12/10 00:20:23;;;;;;;0.70;0.70;;;;;;;-0.39;100.00;95639.16;29373;209;63005;-57
2022/12/10 00:20:54;;;;;;;0.60;0.60;;;;;;;-0.39;100.00;95637.28;29373;197;63009;-57
2022/12/10 00:21:31;;;;;;;0.65;0.65;;;;;;;-0.43;99.98;95636.19;29373;207;63005;-57
2022/12/10 00:22:03;;;;;;;0.65;0.65;;;;;;;-0.39;99.96;95641.81;29373;225;63009;-58
2022/12/10 00:22:34;;;;;;;0.70;0.70;;;;;;;-0.39;99.81;95647.94;29373;284;63004;-58
2022/12/10 00:23:06;;;;;;;0.60;0.60;;;;;;;-0.39;99.80;95641.81;29371;234;64013;-57
2022/12/10 00:23:38;;;;;;;0.60;0.60;;;;;;;-0.39;99.81;95644.47;29373;299;63006;-57
2022/12/10 00:24:09;;;;;;;0.70;0.70;;;;;;;-0.39;100.00;95637.28;29373;218;63009;-57
2022/12/10 00:24:41;;;;;;;0.65;0.65;;;;;;;-0.40;99.90;95640.22;29371;366;64009;-58
2022/12/10 00:25:12;;;;;;;0.70;0.70;;;;;;;-0.38;100.00;95643.44;29373;221;63008;-56
2022/12/10 00:25:46;;;;;;;0.70;0.70;;;;;;;-0.39;100.00;95639.16;29373;339;63005;-56
2022/12/10 00:26:29;;;;;;;0.60;0.60;;;;;;;-0.40;99.94;95638.34;29373;230;63009;-57
2022/12/10 00:27:00;;;;;;;0.70;0.70;;;;;;;-0.39;99.99;95637.28;29373;203;63011;-57
2022/12/10 00:27:31;;;;;;;0.68;0.68;;;;;;;-0.40;99.89;95641.00;29371;245;64013;-56
2022/12/10 00:28:03;;;;;;;0.70;0.70;;;;;;;-0.39;99.76;95641.81;29373;206;63005;-57
2022/12/10 00:28:35;;;;;;;0.70;0.70;;;;;;;-0.40;99.61;95634.88;29373;225;63009;-57
2022/12/10 00:29:10;;;;;;;0.62;0.62;;;;;;;-0.41;99.39;95633.28;29373;292;63005;-57
2022/12/10 00:29:43;;;;;;;0.70;0.70;;;;;;;-0.42;99.61;95639.66;29373;313;63009;-56
2022/12/10 00:30:15;;;;;;;0.93;0.93;;;;;;;-0.41;99.54;95634.06;29373;202;63004;-57
2022/12/10 00:30:46;;;;;;;0.65;0.65;;;;;;;-0.41;99.60;95631.41;29373;211;63009;-57
2022/12/10 00:31:32;;;;;;;0.73;0.73;;;;;;;-0.40;99.72;95640.22;29373;222;63004;-57
2022/12/10 00:32:05;;;;;;;0.60;0.60;;;;;;;-0.42;99.74;95637.78;29373;236;63009;-57
2022/12/10 00:32:36;;;;;;;0.75;0.75;;;;;;;-0.42;99.56;95631.66;29371;229;64008;-57
2022/12/10 00:33:07;;;;;;;0.70;0.70;;;;;;;-0.41;99.44;95633.28;29373;235;63008;-57
2022/12/10 00:33:39;;;;;;;0.60;0.60;;;;;;;-0.40;99.76;95635.69;29373;197;63005;-59
2022/12/10 00:34:12;;;;;;;0.68;0.68;;;;;;;-0.39;99.70;95626.63;29373;230;63009;-59
2022/12/10 00:34:43;;;;;;;0.62;0.62;;;;;;;-0.39;99.43;95631.16;29373;219;63005;-57
2022/12/10 00:35:15;;;;;;;0.60;0.60;;;;;;;-0.39;99.57;95625.81;29373;269;63017;-57
2022/12/10 00:35:47;;;;;;;0.60;0.60;;;;;;;-0.39;99.49;95633.81;29373;327;63005;-57
2022/12/10 00:36:21;;;;;;;0.60;0.60;;;;;;;-0.39;99.48;95631.16;29373;202;63009;-56
2022/12/10 00:36:52;;;;;;;0.70;0.70;;;;;;;-0.37;99.74;95634.37;29373;283;63005;-57
2022/12/10 00:37:23;;;;;;;0.70;0.70;;;;;;;-0.37;99.81;95634.37;29373;331;63014;-58
2022/12/10 00:37:55;;;;;;;0.70;0.70;;;;;;;-0.36;100.00;95633.31;29371;254;64009;-57
2022/12/10 00:38:26;;;;;;;0.60;0.60;;;;;;;-0.35;100.00;95627.69;29373;329;63009;-58
2022/12/10 00:38:58;;;;;;;0.60;0.60;;;;;;;-0.32;100.00;95631.72;29373;241;63004;-57
2022/12/10 00:39:29;;;;;;;0.60;0.60;;;;;;;-0.32;100.00;95626.37;29373;196;63009;-56
2022/12/10 00:40:01;;;;;;;0.68;0.68;;;;;;;-0.32;100.00;95631.72;29373;202;63004;-57
2022/12/10 00:40:33;;;;;;;0.70;0.70;;;;;;;-0.31;100.00;95633.31;29372;301;63008;-57
2022/12/10 00:41:05;;;;;;;0.60;0.60;;;;;;;-0.31;100.00;95628.00;29371;342;64009;-57
2022/12/10 00:41:36;;;;;;;0.70;0.70;;;;;;;-0.32;100.00;95634.37;29373;211;63009;-57
2022/12/10 00:42:10;;;;;;;0.65;0.65;;;;;;;-0.32;100.00;95630.91;29373;211;63007;-57
2022/12/10 00:42:41;;;;;;;0.62;0.62;;;;;;;-0.34;100.00;95639.16;29373;197;63009;-57
2022/12/10 00:43:13;;;;;;;0.70;0.70;;;;;;;-0.34;100.00;95633.84;29373;233;63005;-56
2022/12/10 00:43:45;;;;;;;0.70;0.70;;;;;;;-0.35;99.97;95638.38;29373;202;63009;-57
2022/12/10 00:44:16;;;;;;;0.60;0.60;;;;;;;-0.36;99.93;95631.44;29373;331;63005;-57
2022/12/10 00:44:48;;;;;;;0.60;0.60;;;;;;;-0.35;99.81;95637.59;29373;224;63009;-57
2022/12/10 00:45:19;;;;;;;0.60;0.60;;;;;;;-0.36;100.00;95636.78;29373;283;63004;-57
2022/12/10 00:45:50;;;;;;;0.70;0.70;;;;;;;-0.35;100.00;95634.94;29373;242;63025;-57
2022/12/10 00:46:22;;;;;;;0.70;0.70;;;;;;;-0.34;100.00;95633.84;29371;221;64009;-58
2022/12/10 00:46:53;;;;;;;0.60;0.60;;;;;;;-0.34;100.00;95639.97;29373;269;63009;-57
2022/12/10 00:47:24;;;;;;;0.70;0.70;;;;;;;-0.33;100.00;95635.44;29373;211;63004;-58
2022/12/10 00:47:55;;;;;;;0.70;0.70;;;;;;;-0.34;100.00;95629.31;29373;374;63008;-57
2022/12/10 00:48:27;;;;;;;0.70;0.70;;;;;;;-0.33;100.00;95627.44;29373;359;63005;-57
2022/12/10 00:48:58;;;;;;;0.70;0.70;;;;;;;-0.32;99.81;95637.06;29373;364;63009;-57
2022/12/10 00:49:30;;;;;;;0.68;0.68;;;;;;;-0.32;99.93;95631.72;29373;216;63015;-57
2022/12/10 00:50:01;;;;;;;0.70;0.70;;;;;;;-0.32;100.00;95637.06;29373;348;63009;-57
2022/12/10 00:50:32;;;;;;;0.70;0.70;;;;;;;-0.32;100.00;95634.37;29373;265;63005;-57
2022/12/10 00:51:10;;;;;;;0.60;0.60;;;;;;;-0.31;100.00;95633.31;29373;229;63014;-57
2022/12/10 00:51:42;;;;;;;0.70;0.70;;;;;;;-0.31;100.00;95637.84;29371;218;64009;-57
2022/12/10 00:52:14;;;;;;;0.62;0.62;;;;;;;-0.32;100.00;95637.06;29373;215;63009;-57
2022/12/10 00:52:45;;;;;;;0.62;0.62;;;;;;;-0.33;100.00;95630.12;29373;212;63004;-56
2022/12/10 00:53:17;;;;;;;0.70;0.70;;;;;;;-0.33;100.00;95640.78;29373;226;63009;-57
2022/12/10 00:53:50;;;;;;;0.70;0.70;;;;;;;-0.33;100.00;95632.78;29371;223;64009;-57
2022/12/10 00:54:21;;;;;;;0.60;0.60;;;;;;;-0.34;100.00;95639.16;29373;238;63009;-57
2022/12/10 00:54:52;;;;;;;0.68;0.68;;;;;;;-0.34;100.00;95637.31;29373;256;63004;-57
2022/12/10 00:55:23;;;;;;;0.60;0.60;;;;;;;-0.33;100.00;95635.44;29373;335;63008;-56
2022/12/10 00:55:56;;;;;;;0.70;0.70;;;;;;;-0.32;100.00;95637.06;29373;288;63005;-57
2022/12/10 00:56:30;;;;;;;0.60;0.60;;;;;;;-0.31;100.00;95633.31;29373;209;63024;-57
2022/12/10 00:57:01;;;;;;;0.60;0.60;;;;;;;-0.31;100.00;95641.31;29371;272;64009;-57
2022/12/10 00:57:32;;;;;;;0.60;0.60;;;;;;;-0.31;100.00;95637.84;29373;219;63009;-57
2022/12/10 00:58:03;;;;;;;0.62;0.62;;;;;;;-0.33;100.00;95640.78;29373;241;63008;-57
2022/12/10 00:58:36;;;;;;;0.70;0.70;;;;;;;-0.34;100.00;95644.50;29371;200;64013;-57
2022/12/10 00:59:07;;;;;;;0.60;0.60;;;;;;;-0.35;100.00;95641.03;29373;208;63005;-56
2022/12/10 00:59:38;;;;;;;0.70;0.70;;;;;;;-0.34;100.00;95647.16;29373;227;63009;-57
2022/12/10 01:00:12;;;;;;;0.70;0.70;;;;;;;-0.34;100.00;95639.97;29373;220;63004;-57
2022/12/10 01:00:44;;;;;;;0.60;0.60;;;;;;;-0.36;100.00;95642.13;29373;272;63009;-57
2022/12/10 01:01:31;;;;;;;1.35;1.35;;;;;;;-0.38;99.55;95643.44;29373;225;63004;-56
2022/12/10 01:02:02;;;;;;;0.65;0.65;;;;;;;-0.39;99.78;95647.94;29373;211;63009;-57
2022/12/10 01:02:34;;;;;;;0.70;0.70;;;;;;;-0.40;99.51;95640.22;29373;213;63004;-57
2022/12/10 01:03:05;;;;;;;0.60;0.60;;;;;;;-0.39;99.41;95641.81;29373;201;63008;-56
2022/12/10 01:03:40;;;;;;;0.98;0.98;;;;;;;-0.40;99.55;95645.53;29371;197;64009;-57
2022/12/10 01:04:15;;;;;;;0.70;0.70;;;;;;;-0.39;99.50;95647.94;29371;213;64014;-57
2022/12/10 01:04:46;;;;;;;0.52;0.52;;;;;;;-0.43;99.46;95641.50;29373;203;63005;-57
2022/12/10 01:05:17;;;;;;;0.70;0.70;;;;;;;-0.39;99.39;95645.28;29373;202;63009;-57
2022/12/10 01:05:49;;;;;;;0.70;0.70;;;;;;;-0.39;99.25;95641.81;29373;225;63005;-57
2022/12/10 01:06:30;;;;;;;0.70;0.70;;;;;;;-0.39;99.72;95652.47;29373;207;63009;-57
2022/12/10 01:07:01;;;;;;;;;;;;;;;-0.39;99.26;95649.81;29974;983;28000;-57
2022/12/10 01:07:32;;;;;;;0.60;0.60;;;;;;;-0.39;99.57;95650.63;29422;212;63004;-57
2022/12/10 01:08:04;;;;;;;0.60;0.60;;;;;;;-0.39;99.27;95647.94;29395;205;63009;-56
2022/12/10 01:08:35;;;;;;;0.73;0.73;;;;;;;-0.40;99.28;95653.53;29373;233;63004;-57
2022/12/10 01:09:10;;;;;;;0.65;0.65;;;;;;;-0.42;98.88;95652.97;29373;213;63009;-57
2022/12/10 01:09:41;;;;;;;0.70;0.70;;;;;;;-0.43;99.02;95651.38;29371;288;64009;-57
2022/12/10 01:10:14;;;;;;;0.60;0.60;;;;;;;-0.42;99.32;95652.97;29373;225;63008;-57
2022/12/10 01:10:52;;;;;;;0.68;0.68;;;;;;;-0.42;99.52;95658.31;29371;210;64008;-57
2022/12/10 01:11:27;;;;;;;0.70;0.70;;;;;;;-0.43;99.39;95654.84;29373;217;63009;-57
2022/12/10 01:12:01;;;;;;;0.60;0.60;;;;;;;-0.43;99.75;95646.03;29373;264;63011;-57
2022/12/10 01:12:33;;;;;;;0.62;0.62;;;;;;;-0.43;99.66;95654.84;29373;225;63009;-57
2022/12/10 01:13:05;;;;;;;0.70;0.70;;;;;;;-0.41;99.63;95654.59;29373;205;63005;-57
2022/12/10 01:13:37;;;;;;;0.60;0.60;;;;;;;-0.42;99.51;95652.97;29373;316;63009;-58
2022/12/10 01:15:16;;;;;;;0.64;0.64;;;;;;;-0.39;99.59;95657.81;88174;206;64005;-57
2022/12/10 01:15:48;;;;;;;0.60;0.60;;;;;;;-0.38;99.47;95656.75;29394;223;64009;-57
2022/12/10 01:16:21;;;;;;;0.65;0.65;;;;;;;-0.37;99.50;95661.03;29373;255;63005;-56
2022/12/10 01:16:57;;;;;;;0.70;0.70;;;;;;;-0.37;99.40;95655.69;29373;298;63009;-57
2022/12/10 01:17:29;;;;;;;0.60;0.60;;;;;;;-0.37;99.39;95661.81;29373;242;63005;-57
2022/12/10 01:18:00;;;;;;;0.60;0.60;;;;;;;-0.36;99.55;95657.31;29373;223;63009;-56
2022/12/10 01:18:32;;;;;;;0.70;0.70;;;;;;;-0.35;99.44;95653.56;29373;279;63005;-56
2022/12/10 01:19:05;;;;;;;0.70;0.70;;;;;;;-0.34;99.67;95660.50;29373;212;63009;-56
2022/12/10 01:19:36;;;;;;;0.70;0.70;;;;;;;-0.35;99.08;95653.56;29373;276;63005;-57
2022/12/10 01:20:08;;;;;;;0.60;0.60;;;;;;;-0.36;99.51;95662.63;29373;225;63009;-57
2022/12/10 01:20:39;;;;;;;0.60;0.60;;;;;;;-0.38;99.30;95664.75;29371;203;64009;-56
2022/12/10 01:21:15;;;;;;;0.70;0.70;;;;;;;-0.38;99.28;95660.22;29373;313;63009;-56
2022/12/10 01:21:51;;;;;;;0.60;0.60;;;;;;;-0.37;99.40;95661.03;29373;285;63009;-65
2022/12/10 01:22:22;;;;;;;2.05;1.90;;;;;;;-0.37;99.16;95661.03;29373;226;63008;-57
2022/12/10 01:22:53;;;;;;;0.70;0.70;;;;;;;-0.38;99.13;95664.75;29372;206;64004;-57
2022/12/10 01:23:24;;;;;;;0.60;0.60;;;;;;;-0.36;99.39;95673.28;29373;264;63009;-57
2022/12/10 01:23:57;;;;;;;0.60;0.60;;;;;;;-0.37;99.08;95666.34;29373;270;63008;-57
2022/12/10 01:24:29;;;;;;;0.70;0.70;;;;;;;-0.36;99.31;95665.28;29373;262;63009;-57
2022/12/10 01:25:00;;;;;;;0.60;0.60;;;;;;;-0.34;99.04;95671.16;29371;222;64009;-56
2022/12/10 01:25:31;;;;;;;0.70;0.70;;;;;;;-0.33;99.24;95672.75;29373;213;63009;-57
2022/12/10 01:26:07;;;;;;;0.60;0.60;;;;;;;-0.33;99.14;95670.09;29373;322;63005;-57
2022/12/10 01:26:39;;;;;;;0.60;0.60;;;;;;;-0.35;98.93;95673.00;29373;202;63016;-58
2022/12/10 01:27:10;;;;;;;0.60;0.60;;;;;;;-0.36;98.99;95671.44;29373;226;63004;-58
2022/12/10 01:27:41;;;;;;;0.60;0.60;;;;;;;-0.34;99.02;95676.47;29373;246;63009;-57
2022/12/10 01:28:12;;;;;;;0.60;0.60;;;;;;;-0.35;99.22;95674.91;29373;333;63004;-58
2022/12/10 01:28:44;;;;;;;0.60;0.60;;;;;;;-0.36;98.84;95674.09;29373;206;63009;-58
2022/12/10 01:29:16;;;;;;;0.70;0.70;;;;;;;-0.36;98.93;95667.97;29373;305;63004;-58
2022/12/10 01:29:47;;;;;;;0.60;0.60;;;;;;;-0.35;98.99;95672.25;29371;221;64013;-57
2022/12/10 01:30:18;;;;;;;0.60;0.60;;;;;;;-0.36;98.98;95673.28;29373;219;63007;-55
2022/12/10 01:30:50;;;;;;;0.60;0.60;;;;;;;-0.35;98.92;95674.91;29373;200;63009;-56
2022/12/10 01:31:27;;;;;;;0.70;0.70;;;;;;;-0.37;98.95;95677.81;29373;224;63005;-56
2022/12/10 01:32:00;;;;;;;0.70;0.70;;;;;;;-0.37;98.86;95674.34;29373;215;63009;-57
2022/12/10 01:32:31;;;;;;;0.70;0.70;;;;;;;-0.37;99.19;95677.00;29373;291;63005;-58
2022/12/10 01:33:03;;;;;;;0.70;0.70;;;;;;;-0.37;99.25;95677.00;29373;310;63009;-58
2022/12/10 01:33:36;;;;;;;0.60;0.60;;;;;;;-0.38;98.98;95680.75;29373;214;63005;-57
2022/12/10 01:34:12;;;;;;;0.70;0.70;;;;;;;-0.37;99.17;95683.16;29373;205;63009;-58
2022/12/10 01:34:44;;;;;;;0.60;0.60;;;;;;;-0.36;99.15;95681.28;29371;219;64009;-58
2022/12/10 01:35:15;;;;;;;0.60;0.60;;;;;;;-0.36;99.15;95679.44;29371;254;64013;-58
2022/12/10 01:35:46;;;;;;;0.60;0.60;;;;;;;-0.35;99.21;95677.56;29373;206;63004;-58
2022/12/10 01:36:24;;;;;;;0.60;0.60;;;;;;;-0.35;99.35;95675.69;29373;202;63011;-57
2022/12/10 01:36:55;;;;;;;0.60;0.60;;;;;;;-0.33;99.33;95678.09;29371;333;64009;-58
2022/12/10 01:37:26;;;;;;;0.60;0.60;;;;;;;-0.34;99.33;95677.28;29373;226;63008;-57
2022/12/10 01:37:57;;;;;;;0.70;0.70;;;;;;;-0.32;99.13;95682.38;29373;201;63004;-57
2022/12/10 01:38:29;;;;;;;0.60;0.60;;;;;;;-0.31;99.37;95681.31;29373;216;63009;-57
2022/12/10 01:39:05;;;;;;;0.68;0.68;;;;;;;-0.31;99.04;95673.31;29371;198;64009;-57
2022/12/10 01:39:36;;;;;;;0.65;0.65;;;;;;;-0.31;99.05;95686.63;29373;197;63009;-57
2022/12/10 01:40:09;;;;;;;0.70;0.70;;;;;;;-0.31;99.18;95683.97;29371;250;64009;-66
2022/12/10 01:40:41;;;;;;;0.70;0.70;;;;;;;-0.30;99.15;95682.13;29373;254;63009;-57
2022/12/10 01:41:18;;;;;;;0.70;0.70;;;;;;;-0.29;98.85;95689.84;29373;210;63005;-57
2022/12/10 01:41:52;;;;;;;0.62;0.62;;;;;;;-0.29;98.89;95679.19;29371;289;64013;-57
2022/12/10 01:42:24;;;;;;;0.60;0.60;;;;;;;-0.28;98.99;95691.47;29373;239;63004;-57
2022/12/10 01:42:55;;;;;;;0.70;0.70;;;;;;;-0.29;98.94;95689.06;29373;220;63004;-57
2022/12/10 01:43:27;;;;;;;0.70;0.70;;;;;;;-0.30;98.96;95687.44;29373;291;63004;-56
2022/12/10 01:44:45;;;;;;;0.68;0.68;;;;;;;-0.32;98.88;95689.56;29373;262;63009;-57
2022/12/10 01:45:17;;;;;;;0.70;0.70;;;;;;;-0.32;98.60;95700.22;29373;208;63004;-58
2022/12/10 01:45:48;;;;;;;0.70;0.70;;;;;;;-0.32;98.67;95695.69;29373;238;63017;-57
2022/12/10 01:46:21;;;;;;;0.70;0.70;;;;;;;-0.32;98.69;95698.34;29373;257;63005;-57
2022/12/10 01:46:58;;;;;;;0.62;0.62;;;;;;;-0.31;98.58;95696.50;29371;252;64014;-70
2022/12/10 01:47:29;;;;;;;1.15;1.15;;;;;;;-0.34;98.47;95700.47;29373;220;63005;-57
2022/12/10 01:48:01;;;;;;;0.60;0.60;;;;;;;-0.33;98.66;95699.41;29373;210;63009;-57
2022/12/10 01:48:34;;;;;;;0.70;0.70;;;;;;;-0.33;98.81;95688.75;29372;338;63015;-57
2022/12/10 01:49:08;;;;;;;0.60;0.60;;;;;;;-0.35;98.82;95697.00;29373;272;63009;-56
2022/12/10 01:49:40;;;;;;;0.70;0.70;;;;;;;-0.35;98.78;95698.88;29373;204;63004;-57
2022/12/10 01:50:15;;;;;;;0.70;0.70;;;;;;;-0.33;98.68;95696.75;29373;342;63009;-57
2022/12/10 01:50:47;;;;;;;0.70;0.70;;;;;;;-0.32;98.59;95695.69;29373;247;63004;-57
2022/12/10 01:51:20;;;;;;;0.60;0.60;;;;;;;-0.32;98.59;95695.69;29373;297;63009;-57
2022/12/10 01:51:54;;;;;;;0.60;0.60;;;;;;;-0.32;98.54;95700.22;29373;244;63004;-56
2022/12/10 01:52:27;;;;;;;0.70;0.70;;;;;;;-0.33;98.62;95694.09;29371;240;64013;-56
2022/12/10 01:53:00;;;;;;;0.70;0.70;;;;;;;-0.34;98.51;95698.59;29373;280;63004;-56
2022/12/10 01:53:32;;;;;;;0.62;0.62;;;;;;;-0.34;98.43;95692.47;29373;327;63009;-57
2022/12/10 01:54:07;;;;;;;0.70;0.70;;;;;;;-0.35;98.36;95696.22;29373;224;63005;-57
2022/12/10 01:54:45;;;;;;;0.65;0.65;;;;;;;-0.35;98.41;95696.22;29373;250;63009;-58
2022/12/10 01:55:54;;;;;;;0.80;0.80;;;;;;;-0.35;98.52;95698.88;29373;289;63008;-57
2022/12/10 01:56:26;;;;;;;1.02;1.02;;;;;;;-0.36;98.33;95694.63;29373;214;63009;-57
2022/12/10 01:57:09;;;;;;;0.60;0.60;;;;;;;-0.37;98.40;95695.66;29373;300;63004;-57
2022/12/10 01:57:40;;;;;;;1.55;1.55;;;;;;;-0.40;98.17;95699.63;29371;215;64013;-57
2022/12/10 01:58:14;;;;;;;4.82;4.40;;;;;;;-0.38;98.35;95691.41;29373;339;63003;-57
2022/12/10 01:58:47;;;;;;;0.80;0.80;;;;;;;-0.38;98.59;95696.72;29373;275;63009;-57
2022/12/10 01:59:18;;;;;;;0.70;0.70;;;;;;;-0.37;98.32;95693.81;29373;196;63004;-57
2022/12/10 01:59:58;;;;;;;0.82;0.82;;;;;;;-0.37;98.33;95691.16;29373;220;63008;-68
2022/12/10 02:00:34;;;;;;;6.03;5.78;;;;;;;-0.37;98.52;95693.81;29371;252;64009;-57
2022/12/10 02:01:54;;;;;;;0.60;0.60;;;;;;;-0.36;98.36;95694.63;29373;280;63009;-57
2022/12/10 02:02:46;;;;;;;0.60;0.60;;;;;;;-0.36;98.92;95698.09;29373;231;63005;-57
2022/12/10 02:03:29;;;;;;;0.70;0.70;;;;;;;-0.35;98.85;95701.56;29395;207;63009;-57
2022/12/10 02:04:39;;;;;;;0.70;0.70;;;;;;;-0.34;98.71;95693.28;29395;224;63005;-57
2022/12/10 02:05:38;;;;;;;0.70;0.70;;;;;;;-0.34;99.07;95701.28;29373;219;63009;-57
2022/12/10 02:06:51;;;;;;;0.70;0.70;;;;;;;-0.31;98.89;95699.16;29371;198;64009;-57
2022/12/10 02:07:48;;;;;;;0.80;0.80;;;;;;;-0.29;98.86;95699.72;29373;223;63008;-57
2022/12/10 02:08:45;;;;;;;0.70;0.70;;;;;;;-0.29;98.44;95705.03;29373;219;63009;-59
2022/12/10 02:09:43;;;;;;;0.70;0.70;;;;;;;-0.27;98.43;95693.06;29373;260;63016;-57
2022/12/10 02:11:02;;;;;;;0.70;0.70;;;;;;;-0.29;98.21;95695.19;29373;263;63025;-58
2022/12/10 02:11:46;;;;;;;0.70;0.70;;;;;;;-0.31;98.21;95693.81;29371;218;64013;-57
2022/12/10 02:12:43;;;;;;;0.60;0.60;;;;;;;-0.32;98.19;95690.34;29373;209;63004;-56
2022/12/10 02:14:04;;;;;;;0.70;0.70;;;;;;;-0.34;98.73;95698.59;29373;221;63009;-57
2022/12/10 02:14:52;;;;;;;0.70;0.70;;;;;;;-0.35;98.84;95691.66;29373;241;63007;-57
2022/12/10 02:15:28;;;;;;;0.70;0.70;;;;;;;-0.35;98.89;95688.22;29373;222;63009;-57
2022/12/10 02:16:26;;;;;;;0.70;0.70;;;;;;;-0.35;98.64;95696.22;29373;203;63005;-57
2022/12/10 02:17:25;;;;;;;0.70;0.70;;;;;;;-0.32;98.60;95695.69;29371;214;64013;-57
2022/12/10 02:18:07;;;;;;;0.80;0.80;;;;;;;-0.32;98.57;95690.34;29373;219;63017;-57
2022/12/10 02:18:57;;;;;;;0.62;0.62;;;;;;;-0.31;98.41;95691.16;29373;238;63009;-57
2022/12/10 02:20:12;;;;;;;0.70;0.70;;;;;;;-0.35;98.69;95690.91;29373;212;63004;-57
2022/12/10 02:20:56;;;;;;;0.70;0.70;;;;;;;-0.35;98.78;95688.22;29373;204;63009;-57
2022/12/10 02:21:38;;;;;;;3.05;2.85;;;;;;;-0.35;98.60;95685.56;29373;202;63004;-57
2022/12/10 02:22:11;;;;;;;0.70;0.70;;;;;;;-0.33;98.51;95686.09;29371;271;64005;-56
2022/12/10 02:22:55;;;;;;;0.70;0.70;;;;;;;-0.32;98.47;95685.03;29373;210;63008;-57
2022/12/10 02:23:32;;;;;;;0.70;0.70;;;;;;;-0.32;98.41;95689.56;29373;197;63018;-57
2022/12/10 02:24:10;;;;;;;0.70;0.70;;;;;;;-0.32;98.49;95685.03;29373;231;63005;-57
2022/12/10 02:24:44;;;;;;;0.70;0.70;;;;;;;-0.34;98.30;95692.47;29373;251;63009;-57
2022/12/10 02:25:20;;;;;;;0.68;0.68;;;;;;;-0.35;98.33;95691.66;29373;206;63005;-57
2022/12/10 02:26:25;;;;;;;0.60;0.60;;;;;;;-0.36;98.19;95691.94;29373;274;63009;-57
2022/12/10 02:27:21;;;;;;;1.17;1.17;;;;;;;-0.40;98.19;95690.84;29373;286;63004;-56
2022/12/10 02:28:24;;;;;;;0.60;0.60;;;;;;;-0.42;98.24;95687.63;29371;206;64013;-57
2022/12/10 02:29:19;;;;;;;0.77;0.77;;;;;;;-0.42;98.45;95683.09;29372;291;64004;-58
2022/12/10 02:29:52;;;;;;;0.60;0.60;;;;;;;-0.42;98.46;95690.28;29371;241;64013;-57
2022/12/10 02:30:27;;;;;;;0.70;0.70;;;;;;;-0.42;98.53;95690.28;29373;223;63007;-57
2022/12/10 02:31:00;;;;;;;0.60;0.60;;;;;;;-0.42;98.60;95687.63;29372;205;64009;-57
2022/12/10 02:31:33;;;;;;;0.60;0.60;;;;;;;-0.42;98.90;95683.09;29373;203;63005;-57
2022/12/10 02:32:19;;;;;;;0.70;0.70;;;;;;;-0.43;99.06;95681.50;29371;214;64013;-57
2022/12/10 02:32:51;;;;;;;0.70;0.70;;;;;;;-0.43;99.13;95686.00;29373;255;63013;-56
2022/12/10 02:33:24;;;;;;;0.60;0.60;;;;;;;-0.42;99.08;95682.28;29373;262;63009;-56
2022/12/10 02:33:59;;;;;;;0.70;0.70;;;;;;;-0.42;99.16;95684.97;29373;197;63010;-57
2022/12/10 02:34:35;;;;;;;0.60;0.60;;;;;;;-0.44;99.31;95679.87;29373;257;63009;-57
2022/12/10 02:35:13;;;;;;;0.70;0.70;;;;;;;-0.44;99.19;95676.41;29373;268;63004;-57
2022/12/10 02:35:47;;;;;;;0.70;0.70;;;;;;;-0.45;99.17;95674.81;29373;198;63017;-56
2022/12/10 02:36:21;;;;;;;0.65;0.65;;;;;;;-0.46;99.36;95674.00;29371;218;64009;-57
2022/12/10 02:36:56;;;;;;;4.87;4.57;;;;;;;-0.46;99.56;95675.84;29373;220;63008;-57
2022/12/10 02:37:32;;;;;;;0.70;0.70;;;;;;;-0.47;99.43;95672.37;29371;244;64008;-57
2022/12/10 02:38:16;;;;;;;0.68;0.68;;;;;;;-0.46;99.44;95673.19;29373;227;63009;-57
2022/12/10 02:38:51;;;;;;;0.60;0.60;;;;;;;-0.46;99.65;95675.84;29373;198;63014;-57
2022/12/10 02:39:30;;;;;;;0.70;0.70;;;;;;;-0.47;99.43;95672.37;29373;210;63009;-57
2022/12/10 02:40:08;;;;;;;0.70;0.70;;;;;;;-0.47;99.37;95676.91;29373;206;63018;-58
2022/12/10 02:40:46;;;;;;;0.70;0.70;;;;;;;-0.48;99.48;95675.31;29373;224;63009;-57
2022/12/10 02:41:28;;;;;;;0.70;0.70;;;;;;;-0.50;99.35;95672.88;29373;210;63005;-57
2022/12/10 02:42:02;;;;;;;0.60;0.60;;;;;;;-0.50;99.34;95669.44;29373;196;63009;-57
2022/12/10 02:42:39;;;;;;;0.68;0.68;;;;;;;-0.49;99.48;95668.38;29371;221;64009;-57
2022/12/10 02:43:13;;;;;;;0.62;0.62;;;;;;;-0.48;99.48;95665.44;29373;258;63009;-58
2022/12/10 02:43:49;;;;;;;0.70;0.70;;;;;;;-0.48;99.57;95669.97;29373;208;63004;-57
2022/12/10 02:44:24;;;;;;;0.70;0.70;;;;;;;-0.48;99.41;95669.97;29373;268;63008;-57
2022/12/10 02:44:57;;;;;;;0.70;0.70;;;;;;;-0.48;99.57;95660.12;29372;247;64004;-57
2022/12/10 02:45:31;;;;;;;0.70;0.70;;;;;;;-0.48;99.44;95669.97;29373;226;63009;-57
2022/12/10 02:46:04;;;;;;;0.60;0.60;;;;;;;-0.47;99.44;95666.25;29373;251;63005;-57
2022/12/10 02:46:38;;;;;;;0.60;0.60;;;;;;;-0.48;99.40;95667.31;29372;263;64009;-57
2022/12/10 02:47:15;;;;;;;0.60;0.60;;;;;;;-0.49;99.43;95663.03;29373;238;63005;-66
2022/12/10 02:47:48;;;;;;;4.43;2.55;;;;;;;-0.51;99.16;95659.81;29371;210;64013;-58
2022/12/10 02:48:19;;;;;;;0.70;0.70;;;;;;;-0.52;99.30;95663.53;29373;245;63005;-57
2022/12/10 02:48:52;;;;;;;0.60;0.60;;;;;;;-0.53;99.16;95661.94;29373;220;63009;-57
2022/12/10 02:49:26;;;;;;;0.70;0.70;;;;;;;-0.55;99.37;95662.19;29373;220;63004;-58
2022/12/10 02:49:59;;;;;;;0.62;0.62;;;;;;;-0.54;99.44;95660.31;29373;196;63009;-57